Weather at Owen Sound (Grey Bruce Health Services) Heliport

Public forecast

Using degrees Celsius for public forecast. Weather courtesy of forecast.io.

Closest aviation weather report (METAR) to Owen Sound (Grey Bruce Health Services) Heliport

Closest report is Wiarton Airport, 13.5 nm (25.0 km) NW. Retrieved 2020/09/29 15:39 UTC (5 minutes ago):

CYVV 291539Z 25010KT 10SM -SHRA BKN020 13/10 A2978 RMK SC7 CVCTV CLD EMBD SLP088 DENSITY ALT 900FT

Closest aviation forecast (TAF) to Owen Sound (Grey Bruce Health Services) Heliport

Closest forecast is Wiarton Airport, 13.5 nm (25.0 km) NW. Retrieved 2020/09/29 14:00 UTC (2 hours ago):

TAF CYVV 291338Z 2914/2923 25008KT P6SM BKN025 TEMPO 2914/2923 P6SM -SHRA BKN020 BECMG 2914/2916 24010G20KT RMK NXT FCST BY 292000Z